Time;durP1;ratioP1;P1;durP2;ratioP2;P2;SDS_P1;SDS_P2;PMS_P1;PMS_P2;Temp;Humidity;BMP_temperature;BMP_pressure;BME280_temperature;BME280_humidity;BME280_pressure;Samples;Min_cycle;Max_cycle;Signal;HPM_P1;HPM_P2
2022/11/10 00:00:20;;;;;;;0.10;0.10;;;9.80;99.90;;;;;;5061653;28;20224;-86
2022/11/10 00:02:46;;;;;;;0.10;0.10;;;9.80;99.90;;;;;;5062479;28;20168;-85
2022/11/10 00:05:13;;;;;;;0.10;0.10;;;9.80;99.90;;;;;;5061002;28;20180;-85
2022/11/10 00:07:39;;;;;;;0.10;0.10;;;9.80;99.90;;;;;;5063740;28;20177;-85
2022/11/10 00:10:05;;;;;;;0.10;0.10;;;9.70;99.90;;;;;;5060356;28;20211;-85
2022/11/10 00:12:32;;;;;;;0.07;0.07;;;9.70;99.90;;;;;;5079038;28;20218;-85
2022/11/10 00:17:44;;;;;;;0.00;0.00;;;9.70;99.90;;;;;;5054808;28;20246;-85
2022/11/10 00:20:10;;;;;;;0.10;0.10;;;9.70;99.90;;;;;;5060214;28;20197;-85
2022/11/10 00:22:37;;;;;;;0.10;0.10;;;9.70;99.90;;;;;;5063723;28;20200;-85
2022/11/10 00:25:04;;;;;;;0.10;0.10;;;9.70;99.90;;;;;;5082538;28;20203;-85
2022/11/10 00:27:31;;;;;;;0.10;0.10;;;9.70;99.90;;;;;;5060005;28;20215;-86
2022/11/10 00:29:57;;;;;;;0.10;0.10;;;9.70;99.90;;;;;;5063738;28;20956;-85
2022/11/10 00:32:22;;;;;;;0.10;0.10;;;9.70;99.90;;;;;;5060260;28;20177;-85
2022/11/10 00:34:48;;;;;;;0.10;0.10;;;9.70;99.90;;;;;;5078209;28;20632;-85
2022/11/10 00:37:13;;;;;;;0.10;0.10;;;9.70;99.90;;;;;;5060620;28;20203;-86
2022/11/10 00:39:39;;;;;;;0.00;0.00;;;9.70;99.90;;;;;;5061952;28;20248;-85
2022/11/10 00:42:05;;;;;;;0.10;0.10;;;9.60;99.90;;;;;;5060423;28;20183;-85
2022/11/10 00:44:30;;;;;;;0.10;0.10;;;9.60;99.90;;;;;;5061982;28;20225;-85
2022/11/10 00:46:56;;;;;;;0.10;0.10;;;9.70;99.90;;;;;;5068140;28;20221;-85
2022/11/10 00:49:21;;;;;;;0.10;0.10;;;9.70;99.90;;;;;;5060430;28;20216;-85
2022/11/10 00:51:47;;;;;;;0.10;0.10;;;9.70;99.90;;;;;;5063207;28;20181;-85
2022/11/10 00:54:12;;;;;;;0.10;0.10;;;9.70;99.90;;;;;;5070273;28;20176;-85
2022/11/10 00:56:38;;;;;;;0.10;0.10;;;9.70;99.90;;;;;;5062909;28;20263;-85
2022/11/10 00:59:04;;;;;;;0.10;0.10;;;9.60;99.90;;;;;;5065075;28;20196;-85
2022/11/10 01:01:29;;;;;;;0.10;0.10;;;9.70;99.90;;;;;;5058823;28;20185;-85
2022/11/10 01:03:55;;;;;;;0.10;0.10;;;9.60;99.90;;;;;;5079683;28;20324;-86
2022/11/10 01:06:21;;;;;;;0.10;0.10;;;9.60;99.90;;;;;;5059812;28;20557;-85
2022/11/10 01:08:47;;;;;;;0.10;0.10;;;9.60;99.90;;;;;;5060404;28;20234;-85
2022/11/10 01:11:13;;;;;;;0.00;0.00;;;9.50;99.90;;;;;;5062053;28;20598;-85
2022/11/10 01:13:40;;;;;;;0.10;0.10;;;9.60;99.90;;;;;;5066949;28;20179;-86
2022/11/10 01:16:08;;;;;;;0.00;0.00;;;9.50;99.90;;;;;;5063508;28;20672;-85
2022/11/10 01:18:34;;;;;;;0.00;0.00;;;9.50;99.90;;;;;;5068297;28;20221;-85
2022/11/10 01:21:00;;;;;;;0.10;0.10;;;9.40;99.90;;;;;;5066314;28;20190;-85
2022/11/10 01:23:26;;;;;;;0.10;0.10;;;9.20;99.90;;;;;;5072551;28;20457;-85
2022/11/10 01:25:59;;;;;;;0.10;0.10;;;9.10;99.90;;;;;;5056084;28;20186;-85
2022/11/10 01:28:25;;;;;;;0.10;0.10;;;9.00;99.90;;;;;;5063740;28;20692;-85
2022/11/10 01:31:06;;;;;;;0.10;0.10;;;8.80;99.90;;;;;;5065600;28;20176;-85
2022/11/10 01:33:32;;;;;;;0.07;0.07;;;8.60;99.90;;;;;;5086624;28;20726;-85
2022/11/10 01:35:58;;;;;;;0.10;0.10;;;8.60;99.90;;;;;;5061758;28;20174;-84
2022/11/10 01:38:27;;;;;;;0.10;0.10;;;8.50;99.90;;;;;;5085501;28;20930;-85
2022/11/10 01:40:53;;;;;;;0.00;0.00;;;8.40;99.90;;;;;;5062840;28;20839;-85
2022/11/10 01:43:18;;;;;;;0.00;0.00;;;8.40;99.90;;;;;;5068933;28;20252;-85
2022/11/10 01:46:05;;;;;;;0.10;0.10;;;8.50;99.90;;;;;;5061840;28;20257;-86
2022/11/10 01:48:38;;;;;;;0.10;0.10;;;8.40;99.90;;;;;;5065800;28;20286;-86
2022/11/10 01:51:18;;;;;;;0.10;0.10;;;8.50;99.90;;;;;;5067433;28;20207;-84
2022/11/10 01:53:48;;;;;;;0.10;0.10;;;8.50;99.90;;;;;;5060946;28;20198;-86
2022/11/10 01:56:15;;;;;;;0.10;0.10;;;8.60;99.90;;;;;;5083860;28;20262;-85
2022/11/10 01:58:46;;;;;;;0.10;0.10;;;8.60;99.90;;;;;;5065156;28;20208;-85
2022/11/10 02:01:12;;;;;;;0.10;0.10;;;8.60;99.90;;;;;;5065602;28;20183;-85
2022/11/10 02:03:48;;;;;;;0.10;0.10;;;8.50;99.90;;;;;;5063881;28;20181;-85
2022/11/10 02:06:15;;;;;;;0.10;0.10;;;8.50;99.90;;;;;;5063834;28;20168;-84
2022/11/10 02:08:43;;;;;;;0.10;0.10;;;8.50;99.90;;;;;;5057263;28;20541;-85
2022/11/10 02:11:09;;;;;;;0.00;0.00;;;8.40;99.90;;;;;;5064184;28;20587;-86
2022/11/10 02:13:35;;;;;;;0.10;0.10;;;8.50;99.90;;;;;;5066065;28;20656;-85
2022/11/10 02:16:01;;;;;;;0.10;0.10;;;8.50;99.90;;;;;;5064068;28;20258;-85
2022/11/10 02:18:26;;;;;;;0.10;0.10;;;8.60;99.90;;;;;;5063305;28;20299;-85
2022/11/10 02:20:52;;;;;;;0.10;0.10;;;8.60;99.90;;;;;;5065017;28;20176;-86
2022/11/10 02:23:29;;;;;;;0.10;0.10;;;8.50;99.90;;;;;;5061653;28;20169;-85
2022/11/10 02:25:56;;;;;;;0.10;0.10;;;8.50;99.90;;;;;;5066672;28;20172;-86
2022/11/10 02:28:22;;;;;;;0.10;0.10;;;8.40;99.90;;;;;;5062339;28;20252;-85
2022/11/10 02:30:48;;;;;;;0.10;0.10;;;8.30;99.90;;;;;;5064904;28;20176;-85
2022/11/10 02:33:16;;;;;;;0.10;0.10;;;8.10;99.90;;;;;;5061695;28;20267;-85
2022/11/10 02:35:42;;;;;;;0.10;0.10;;;8.10;99.90;;;;;;5064829;28;20269;-85
2022/11/10 02:38:08;;;;;;;0.10;0.10;;;8.10;99.90;;;;;;5084461;28;20214;-85
2022/11/10 02:40:34;;;;;;;0.10;0.10;;;8.10;99.90;;;;;;5060451;28;20606;-85
2022/11/10 02:42:59;;;;;;;0.00;0.00;;;8.10;99.90;;;;;;5067862;28;20167;-85
2022/11/10 02:45:25;;;;;;;0.00;0.00;;;8.20;99.90;;;;;;5056041;28;20639;-85
2022/11/10 02:47:50;;;;;;;0.10;0.10;;;8.20;99.90;;;;;;5063635;28;20174;-85
2022/11/10 02:50:16;;;;;;;0.10;0.10;;;8.30;99.90;;;;;;5062144;28;20200;-86
2022/11/10 02:52:42;;;;;;;0.10;0.10;;;8.20;99.90;;;;;;5063814;28;20183;-85
2022/11/10 02:55:08;;;;;;;0.10;0.10;;;8.20;99.90;;;;;;5061321;28;20173;-85
2022/11/10 02:57:33;;;;;;;0.00;0.00;;;8.30;99.90;;;;;;5066539;28;20233;-86
2022/11/10 02:59:59;;;;;;;0.10;0.10;;;8.20;99.90;;;;;;5064075;28;20195;-87
2022/11/10 03:02:24;;;;;;;0.10;0.10;;;8.20;99.90;;;;;;5079076;28;20183;-85
2022/11/10 03:04:50;;;;;;;0.10;0.10;;;8.30;99.90;;;;;;5064225;28;20179;-85
2022/11/10 03:07:15;;;;;;;0.10;0.10;;;8.20;99.90;;;;;;5062490;28;20190;-85
2022/11/10 03:09:41;;;;;;;0.10;0.10;;;8.20;99.90;;;;;;5064377;28;20224;-85
2022/11/10 03:12:06;;;;;;;0.10;0.10;;;8.20;99.90;;;;;;5083942;28;20175;-86
2022/11/10 03:14:32;;;;;;;0.10;0.10;;;8.30;99.90;;;;;;5061138;28;20191;-85
2022/11/10 03:16:57;;;;;;;0.00;0.00;;;8.10;99.90;;;;;;5065688;28;20259;-85
2022/11/10 03:19:23;;;;;;;0.00;0.00;;;7.90;99.90;;;;;;5063746;28;20219;-85
2022/11/10 03:21:48;;;;;;;0.00;0.00;;;7.70;99.90;;;;;;5063798;28;20169;-85
2022/11/10 03:24:14;;;;;;;0.10;0.10;;;7.60;99.90;;;;;;5063212;28;20185;-86
2022/11/10 03:26:40;;;;;;;0.10;0.10;;;7.50;99.90;;;;;;5062763;28;20166;-85
2022/11/10 03:29:05;;;;;;;0.10;0.10;;;7.50;99.90;;;;;;5062700;28;20194;-85
2022/11/10 03:31:31;;;;;;;0.00;0.00;;;7.40;99.90;;;;;;5063925;28;20192;-85
2022/11/10 03:33:56;;;;;;;0.10;0.10;;;7.40;99.90;;;;;;5063688;28;20361;-84
2022/11/10 03:36:22;;;;;;;0.00;0.00;;;7.40;99.90;;;;;;5069715;28;20182;-85
2022/11/10 03:38:47;;;;;;;0.10;0.10;;;7.40;99.90;;;;;;5053424;28;20219;-85
2022/11/10 03:41:13;;;;;;;0.10;0.10;;;7.40;99.90;;;;;;5060225;28;20584;-86
2022/11/10 03:43:38;;;;;;;0.00;0.00;;;7.50;99.90;;;;;;5064592;28;20187;-86
2022/11/10 03:46:04;;;;;;;0.10;0.10;;;7.40;99.90;;;;;;5083574;28;20269;-85
2022/11/10 03:48:30;;;;;;;0.10;0.10;;;7.30;99.90;;;;;;5059470;28;20201;-85
2022/11/10 03:50:55;;;;;;;0.10;0.10;;;7.40;99.90;;;;;;5065649;28;20181;-85
2022/11/10 03:53:21;;;;;;;0.10;0.10;;;7.40;99.90;;;;;;5060786;28;20180;-85
2022/11/10 03:55:46;;;;;;;0.10;0.10;;;7.50;99.90;;;;;;5078724;28;20194;-85
2022/11/10 03:58:12;;;;;;;0.07;0.07;;;7.50;99.90;;;;;;5061550;28;20300;-85
2022/11/10 04:00:37;;;;;;;0.00;0.00;;;7.60;99.90;;;;;;5067205;28;20181;-86
2022/11/10 04:03:03;;;;;;;0.10;0.10;;;7.60;99.90;;;;;;5063012;28;20521;-85
2022/11/10 04:10:58;;;;;;;0.10;0.10;;;7.70;99.90;;;;;;5056903;28;20661;-85
2022/11/10 04:16:09;;;;;;;0.00;0.00;;;7.40;99.90;;;;;;5059607;28;20184;-85
2022/11/10 04:18:34;;;;;;;0.10;0.10;;;7.30;99.90;;;;;;5062518;28;20576;-85
2022/11/10 04:21:01;;;;;;;0.10;0.10;;;7.30;99.90;;;;;;5063476;28;20173;-85
2022/11/10 04:23:34;;;;;;;0.10;0.10;;;7.40;99.90;;;;;;5068822;28;20302;-85
2022/11/10 04:28:52;;;;;;;0.10;0.10;;;7.50;99.90;;;;;;5052420;28;20209;-85
2022/11/10 04:31:20;;;;;;;0.10;0.10;;;7.40;99.90;;;;;;5060464;28;20186;-85
2022/11/10 04:33:47;;;;;;;0.10;0.10;;;7.30;99.90;;;;;;5065170;28;20203;-85
2022/11/10 04:36:16;;;;;;;0.10;0.10;;;7.20;99.90;;;;;;5069073;28;20615;-85
2022/11/10 04:38:42;;;;;;;0.00;0.00;;;7.00;99.90;;;;;;5052867;28;20689;-85
2022/11/10 04:41:08;;;;;;;0.10;0.10;;;7.10;99.90;;;;;;5068630;28;20170;-86
2022/11/10 04:43:35;;;;;;;0.07;0.07;;;7.10;99.90;;;;;;5059121;28;20179;-86
2022/11/10 04:46:01;;;;;;;0.00;0.00;;;7.20;99.90;;;;;;5084128;28;20225;-86
2022/11/10 04:48:27;;;;;;;0.10;0.10;;;7.30;99.90;;;;;;5064771;28;20221;-85
2022/11/10 04:50:53;;;;;;;0.10;0.10;;;7.40;99.90;;;;;;5084678;28;20272;-85
2022/11/10 04:53:19;;;;;;;0.07;0.07;;;7.30;99.90;;;;;;5064697;28;20179;-85
2022/11/10 04:55:45;;;;;;;0.00;0.00;;;7.20;99.90;;;;;;5066737;28;20235;-86
2022/11/10 04:58:11;;;;;;;0.00;0.00;;;7.00;99.90;;;;;;5065887;28;20189;-85
2022/11/10 05:00:38;;;;;;;0.00;0.00;;;6.90;99.90;;;;;;5066338;28;20176;-85
2022/11/10 05:03:05;;;;;;;0.00;0.00;;;6.90;99.90;;;;;;5065578;28;20198;-85
2022/11/10 05:05:31;;;;;;;0.10;0.10;;;7.00;99.90;;;;;;5065692;28;20198;-85
2022/11/10 05:07:57;;;;;;;0.10;0.10;;;7.10;99.90;;;;;;5065210;28;20175;-85
2022/11/10 05:10:24;;;;;;;0.00;0.00;;;7.20;99.90;;;;;;5064541;28;20194;-85
2022/11/10 05:12:57;;;;;;;0.10;0.10;;;7.40;99.90;;;;;;5068011;28;20181;-85
2022/11/10 05:15:23;;;;;;;0.10;0.10;;;7.40;99.90;;;;;;5073138;28;20194;-85
2022/11/10 05:17:53;;;;;;;0.10;0.10;;;7.50;99.90;;;;;;5056778;28;20193;-85
2022/11/10 05:20:20;;;;;;;0.10;0.10;;;7.60;99.90;;;;;;5063401;28;20190;-85
2022/11/10 05:25:37;;;;;;;0.07;0.07;;;7.80;99.90;;;;;;5063452;28;20222;-85
2022/11/10 05:28:04;;;;;;;0.10;0.10;;;7.80;99.90;;;;;;5062359;28;20185;-85
2022/11/10 05:30:29;;;;;;;0.10;0.10;;;7.80;99.90;;;;;;5086718;28;20247;-85
2022/11/10 05:32:55;;;;;;;0.10;0.10;;;7.90;99.90;;;;;;5062549;28;20180;-85
2022/11/10 05:35:22;;;;;;;0.00;0.00;;;7.90;99.90;;;;;;5085452;28;20207;-86
2022/11/10 05:37:48;;;;;;;0.10;0.10;;;7.90;99.90;;;;;;5061702;28;20198;-85
2022/11/10 05:40:13;;;;;;;0.00;0.00;;;7.80;99.90;;;;;;5067052;28;20208;-85
2022/11/10 05:42:57;;;;;;;0.10;0.10;;;7.80;99.90;;;;;;5065515;28;20268;-85
2022/11/10 05:45:25;;;;;;;0.10;0.10;;;7.80;99.90;;;;;;5064973;28;20199;-85
2022/11/10 05:47:51;;;;;;;0.10;0.10;;;7.90;99.90;;;;;;5065174;28;20235;-85
2022/11/10 05:50:19;;;;;;;0.10;0.10;;;7.90;99.90;;;;;;5056755;28;20206;-85
2022/11/10 05:52:49;;;;;;;0.10;0.10;;;7.90;99.90;;;;;;5065283;28;20169;-85
2022/11/10 05:55:17;;;;;;;0.10;0.10;;;8.00;99.90;;;;;;5062271;28;20236;-85
2022/11/10 05:57:45;;;;;;;0.03;0.03;;;8.00;99.90;;;;;;5063308;28;20195;-85
2022/11/10 06:00:13;;;;;;;0.10;0.10;;;8.00;99.90;;;;;;5063564;28;20192;-86
2022/11/10 06:02:38;;;;;;;0.10;0.10;;;8.10;99.90;;;;;;5064814;28;20263;-85
2022/11/10 06:05:05;;;;;;;0.00;0.00;;;8.10;99.90;;;;;;5062945;28;20269;-85
2022/11/10 06:07:30;;;;;;;0.10;0.10;;;8.00;99.90;;;;;;5081023;28;20192;-85
2022/11/10 06:09:56;;;;;;;0.10;0.10;;;8.10;99.90;;;;;;5062647;28;20201;-86
2022/11/10 06:12:23;;;;;;;0.10;0.10;;;8.10;99.90;;;;;;5085187;28;20527;-84
2022/11/10 06:14:52;;;;;;;0.10;0.10;;;8.10;99.90;;;;;;5053922;28;20175;-85
2022/11/10 06:17:18;;;;;;;0.10;0.10;;;8.10;99.90;;;;;;5066679;28;20661;-85
2022/11/10 06:19:43;;;;;;;0.10;0.10;;;8.10;99.90;;;;;;5065917;28;20196;-85
2022/11/10 06:22:09;;;;;;;0.10;0.10;;;8.10;99.90;;;;;;5064279;28;20540;-85
2022/11/10 06:24:34;;;;;;;0.10;0.10;;;8.10;99.90;;;;;;5063634;28;20175;-85
2022/11/10 06:27:00;;;;;;;0.10;0.10;;;8.10;99.90;;;;;;5064477;28;20179;-86
2022/11/10 06:29:25;;;;;;;0.00;0.00;;;8.00;99.90;;;;;;5062277;28;20206;-85
2022/11/10 06:31:51;;;;;;;0.10;0.10;;;7.90;99.90;;;;;;5064460;28;20188;-86
2022/11/10 06:34:17;;;;;;;0.10;0.10;;;7.80;99.90;;;;;;5063787;28;20617;-85
2022/11/10 06:36:42;;;;;;;0.00;0.00;;;7.80;99.90;;;;;;5063857;28;20173;-85
2022/11/10 06:39:08;;;;;;;0.10;0.10;;;7.80;99.90;;;;;;5062289;28;20216;-85
2022/11/10 06:41:34;;;;;;;0.10;0.10;;;7.90;99.90;;;;;;5060950;28;20260;-85
2022/11/10 06:43:59;;;;;;;0.10;0.10;;;7.90;99.90;;;;;;5071703;28;20196;-85
2022/11/10 06:46:25;;;;;;;0.00;0.00;;;7.90;99.90;;;;;;5087879;28;20180;-86
2022/11/10 06:48:51;;;;;;;0.10;0.10;;;8.00;99.90;;;;;;5064080;28;20205;-85
2022/11/10 06:51:17;;;;;;;0.10;0.10;;;8.00;99.90;;;;;;5067332;28;20420;-85
2022/11/10 06:53:42;;;;;;;0.10;0.10;;;8.10;99.90;;;;;;5061241;28;20627;-85
2022/11/10 06:56:08;;;;;;;0.10;0.10;;;8.20;99.90;;;;;;5083607;28;20184;-85
2022/11/10 06:58:33;;;;;;;0.10;0.10;;;8.20;99.90;;;;;;5063766;28;20214;-85
2022/11/10 07:01:00;;;;;;;0.10;0.10;;;8.20;99.90;;;;;;5064040;28;20223;-85
2022/11/10 07:03:26;;;;;;;0.10;0.10;;;8.20;99.90;;;;;;5062363;28;20700;-86
2022/11/10 07:05:51;;;;;;;0.10;0.10;;;8.30;99.90;;;;;;5063587;28;20180;-85
2022/11/10 07:08:17;;;;;;;0.10;0.10;;;8.40;99.90;;;;;;5060255;28;20570;-85
2022/11/10 07:10:50;;;;;;;0.10;0.10;;;8.50;99.90;;;;;;5063616;28;20299;-85
2022/11/10 07:13:16;;;;;;;0.10;0.10;;;8.60;99.90;;;;;;5064180;28;20182;-85
2022/11/10 07:15:42;;;;;;;0.10;0.10;;;8.60;99.90;;;;;;5063562;28;20669;-85
2022/11/10 07:18:08;;;;;;;0.10;0.10;;;8.60;99.90;;;;;;5061898;28;20202;-85
2022/11/10 07:20:34;;;;;;;0.10;0.10;;;8.70;99.90;;;;;;5064565;28;20687;-85
2022/11/10 07:23:02;;;;;;;0.10;0.10;;;8.80;99.90;;;;;;5063223;28;20176;-86
2022/11/10 07:25:29;;;;;;;0.10;0.10;;;8.70;99.90;;;;;;5087251;28;20207;-85
2022/11/10 07:27:56;;;;;;;0.00;0.00;;;8.70;99.90;;;;;;5060886;28;20183;-86
2022/11/10 07:30:22;;;;;;;0.00;0.00;;;8.80;99.90;;;;;;5067613;28;20198;-86
2022/11/10 07:32:57;;;;;;;0.10;0.10;;;8.80;99.90;;;;;;5061228;28;20199;-85
2022/11/10 07:35:22;;;;;;;0.00;0.00;;;9.00;99.90;;;;;;5066720;28;20175;-85
2022/11/10 07:37:48;;;;;;;0.10;0.10;;;9.20;99.90;;;;;;5064034;28;20202;-85
2022/11/10 07:40:13;;;;;;;0.10;0.10;;;9.20;99.90;;;;;;5062611;28;20627;-85
2022/11/10 07:42:39;;;;;;;0.10;0.10;;;9.40;99.90;;;;;;5061974;28;20182;-85
2022/11/10 07:45:05;;;;;;;0.10;0.10;;;9.40;99.90;;;;;;5063104;28;20378;-85
2022/11/10 07:47:32;;;;;;;0.10;0.10;;;9.50;99.90;;;;;;5064178;28;20219;-84
2022/11/10 07:49:57;;;;;;;0.03;0.03;;;9.70;99.90;;;;;;5062332;28;20292;-85
2022/11/10 07:52:23;;;;;;;0.10;0.10;;;9.70;99.90;;;;;;5061764;28;20195;-85
2022/11/10 07:54:48;;;;;;;0.10;0.10;;;9.80;99.90;;;;;;5063938;28;20306;-86
2022/11/10 07:57:14;;;;;;;0.10;0.10;;;10.00;99.90;;;;;;5060642;28;20741;-85
2022/11/10 07:59:39;;;;;;;0.10;0.10;;;10.20;99.90;;;;;;5076065;28;20203;-85
2022/11/10 08:02:07;;;;;;;0.10;0.10;;;10.20;99.90;;;;;;5059243;28;20187;-86
2022/11/10 08:04:33;;;;;;;0.10;0.10;;;10.30;99.90;;;;;;5053061;28;20184;-85
2022/11/10 08:06:58;;;;;;;0.10;0.10;;;10.40;99.90;;;;;;5059199;28;20181;-85
2022/11/10 08:09:24;;;;;;;0.10;0.10;;;10.60;99.90;;;;;;5081656;28;20574;-84
2022/11/10 08:11:49;;;;;;;0.10;0.10;;;10.70;99.90;;;;;;5081201;28;20180;-85
2022/11/10 08:14:15;;;;;;;0.10;0.10;;;10.80;99.90;;;;;;5061921;28;20180;-86
2022/11/10 08:16:40;;;;;;;0.10;0.10;;;10.80;99.90;;;;;;5054152;28;20180;-85
2022/11/10 08:19:07;;;;;;;0.10;0.10;;;11.00;99.90;;;;;;5062313;28;20201;-85
2022/11/10 08:21:32;;;;;;;0.10;0.10;;;11.20;99.90;;;;;;5053504;28;20181;-85
2022/11/10 08:23:58;;;;;;;0.10;0.10;;;11.30;99.90;;;;;;5056065;28;20546;-86
2022/11/10 08:26:23;;;;;;;0.10;0.10;;;11.40;99.90;;;;;;5060836;28;20181;-85
2022/11/10 08:28:49;;;;;;;0.10;0.10;;;11.30;99.90;;;;;;5062085;28;20297;-85
2022/11/10 08:31:14;;;;;;;0.10;0.10;;;11.40;99.90;;;;;;5060299;28;20638;-85
2022/11/10 08:33:40;;;;;;;0.10;0.10;;;11.50;99.90;;;;;;5065749;28;20643;-85
2022/11/10 08:36:06;;;;;;;0.10;0.10;;;11.60;99.90;;;;;;5059090;28;20173;-85
2022/11/10 08:38:31;;;;;;;0.10;0.10;;;11.70;99.90;;;;;;5081893;28;20259;-85
2022/11/10 08:40:57;;;;;;;0.10;0.10;;;11.80;99.90;;;;;;5058979;28;20186;-85
2022/11/10 08:43:22;;;;;;;0.10;0.10;;;11.90;99.90;;;;;;5080834;28;20634;-85
2022/11/10 08:45:48;;;;;;;0.10;0.10;;;12.00;99.90;;;;;;5063708;28;20546;-84
2022/11/10 08:48:18;;;;;;;0.10;0.10;;;12.10;99.90;;;;;;5062075;28;20184;-85
2022/11/10 08:50:45;;;;;;;0.10;0.10;;;12.20;99.90;;;;;;5057042;28;20223;-85
2022/11/10 08:53:13;;;;;;;0.10;0.10;;;12.20;99.90;;;;;;5061901;28;20187;-85
2022/11/10 08:55:39;;;;;;;0.10;0.10;;;12.30;99.90;;;;;;5071267;28;20184;-85
2022/11/10 08:58:07;;;;;;;0.10;0.10;;;12.30;99.90;;;;;;5061953;28;20236;-85
2022/11/10 09:00:33;;;;;;;0.10;0.10;;;12.50;99.90;;;;;;5051250;28;20170;-85
2022/11/10 09:03:09;;;;;;;0.10;0.10;;;12.60;99.90;;;;;;5062194;28;20263;-85
2022/11/10 09:05:35;;;;;;;0.10;0.10;;;12.70;99.90;;;;;;5048609;28;20173;-86
2022/11/10 09:08:02;;;;;;;0.07;0.07;;;12.80;99.90;;;;;;5061588;28;20180;-85
2022/11/10 09:10:27;;;;;;;0.10;0.10;;;12.80;99.90;;;;;;5056946;28;20202;-85
2022/11/10 09:12:53;;;;;;;0.10;0.10;;;12.90;99.90;;;;;;5062991;28;20195;-85
2022/11/10 09:15:18;;;;;;;0.10;0.10;;;13.00;99.90;;;;;;5068120;28;20194;-85
2022/11/10 09:17:44;;;;;;;0.10;0.10;;;13.10;99.90;;;;;;5051081;28;20568;-85
2022/11/10 09:20:11;;;;;;;0.10;0.10;;;13.10;99.90;;;;;;5058930;28;20190;-85
2022/11/10 09:22:37;;;;;;;0.10;0.10;;;13.30;99.90;;;;;;5063260;28;20175;-85
2022/11/10 09:25:03;;;;;;;0.10;0.10;;;13.30;99.90;;;;;;5081890;28;20649;-86
2022/11/10 09:27:29;;;;;;;0.10;0.10;;;13.30;99.90;;;;;;5058607;28;20232;-85
2022/11/10 09:29:55;;;;;;;0.10;0.10;;;13.40;99.90;;;;;;5063619;28;20209;-85
2022/11/10 09:32:20;;;;;;;0.10;0.10;;;13.40;99.90;;;;;;5061901;28;20230;-85
2022/11/10 09:34:46;;;;;;;0.10;0.10;;;13.40;99.90;;;;;;5065628;28;20185;-87
2022/11/10 09:37:11;;;;;;;0.10;0.10;;;13.20;99.90;;;;;;5065238;28;20188;-86
2022/11/10 09:39:37;;;;;;;0.10;0.10;;;13.20;99.90;;;;;;5064482;28;20214;-86
2022/11/10 09:42:25;;;;;;;0.00;0.00;;;13.20;99.90;;;;;;5065844;28;20642;-85
2022/11/10 09:45:39;;;;;;;0.10;0.10;;;13.30;99.90;;;;;;5057023;28;20169;-85
2022/11/10 09:48:27;;;;;;;0.03;0.03;;;13.40;99.90;;;;;;5024137;28;20217;-85
2022/11/10 09:51:16;;;;;;;0.10;0.10;;;13.50;99.90;;;;;;5058528;28;20192;-85
2022/11/10 09:54:01;;;;;;;0.10;0.10;;;13.40;99.90;;;;;;5060895;28;20200;-85
2022/11/10 09:56:35;;;;;;;0.10;0.10;;;13.50;99.90;;;;;;5083398;28;20189;-86
2022/11/10 09:59:19;;;;;;;0.10;0.10;;;13.20;99.90;;;;;;5084895;28;20209;-85
2022/11/10 10:01:55;;;;;;;0.10;0.10;;;13.00;99.90;;;;;;5045061;28;20548;-85
2022/11/10 10:04:38;;;;;;;0.10;0.10;;;13.00;99.90;;;;;;5071264;28;20207;-85
2022/11/10 10:07:16;;;;;;;0.10;0.10;;;12.80;99.90;;;;;;5041096;28;20173;-85
2022/11/10 10:10:01;;;;;;;0.10;0.10;;;12.80;99.90;;;;;;5061477;28;20197;-84
2022/11/10 10:12:51;;;;;;;0.10;0.10;;;12.70;99.90;;;;;;5068693;28;20165;-85
2022/11/10 10:15:34;;;;;;;0.10;0.10;;;12.80;99.90;;;;;;5060472;28;20201;-85
2022/11/10 10:18:46;;;;;;;0.10;0.10;;;13.00;99.90;;;;;;5063824;28;20189;-85
2022/11/10 10:21:27;;;;;;;0.10;0.10;;;13.10;99.90;;;;;;5061559;28;20219;-85
2022/11/10 10:23:54;;;;;;;0.10;0.10;;;13.30;99.90;;;;;;5064281;28;20185;-85
2022/11/10 10:26:27;;;;;;;0.10;0.10;;;13.90;99.90;;;;;;5064467;28;20170;-84
2022/11/10 10:28:54;;;;;;;0.07;0.07;;;13.90;99.90;;;;;;5065433;28;20215;-85
2022/11/10 10:31:27;;;;;;;0.10;0.10;;;13.80;99.90;;;;;;5062330;28;20265;-85
2022/11/10 10:33:53;;;;;;;0.10;0.10;;;13.60;99.90;;;;;;5071243;28;20235;-85
2022/11/10 10:36:24;;;;;;;0.10;0.10;;;13.70;99.90;;;;;;5063495;28;20178;-85
2022/11/10 10:38:53;;;;;;;0.10;0.10;;;13.50;99.90;;;;;;5064938;28;20201;-85
2022/11/10 10:41:26;;;;;;;0.10;0.10;;;13.60;99.90;;;;;;5061855;28;20170;-85
2022/11/10 10:43:55;;;;;;;0.07;0.07;;;13.60;99.90;;;;;;5064032;28;20185;-85
2022/11/10 10:46:25;;;;;;;0.10;0.10;;;13.90;99.90;;;;;;5068847;28;20617;-85
2022/11/10 10:49:21;;;;;;;0.10;0.10;;;14.10;99.90;;;;;;5060165;28;20696;-85
2022/11/10 10:51:47;;;;;;;0.10;0.10;;;14.10;99.90;;;;;;5054745;28;20218;-85
2022/11/10 10:54:34;;;;;;;0.10;0.10;;;14.30;99.90;;;;;;5057426;28;20213;-85
2022/11/10 10:57:22;;;;;;;0.10;0.10;;;14.40;99.90;;;;;;5063722;28;20655;-86
2022/11/10 10:59:49;;;;;;;0.10;0.10;;;14.60;99.90;;;;;;5071693;28;20979;-85
2022/11/10 11:02:29;;;;;;;0.10;0.10;;;14.60;99.90;;;;;;5063186;28;20646;-85
2022/11/10 11:05:16;;;;;;;0.10;0.10;;;14.60;99.90;;;;;;5065892;28;20177;-85
2022/11/10 11:07:56;;;;;;;0.10;0.10;;;14.40;99.90;;;;;;5051983;28;20188;-87
2022/11/10 11:10:33;;;;;;;0.10;0.10;;;14.60;99.90;;;;;;5063121;28;20200;-87
2022/11/10 11:13:22;;;;;;;0.10;0.10;;;14.50;99.90;;;;;;5064649;28;20647;-86
2022/11/10 11:16:02;;;;;;;0.00;0.00;;;14.50;99.90;;;;;;5055023;28;20244;-87
2022/11/10 11:18:29;;;;;;;0.10;0.10;;;14.50;99.90;;;;;;5063520;28;20218;-86
2022/11/10 11:20:58;;;;;;;0.00;0.00;;;14.50;99.90;;;;;;5066074;28;20175;-85
2022/11/10 11:23:42;;;;;;;0.00;0.00;;;14.60;99.90;;;;;;5057075;28;20186;-85
2022/11/10 11:26:27;;;;;;;0.10;0.10;;;14.60;99.90;;;;;;5060577;28;20658;-85
2022/11/10 11:29:13;;;;;;;0.10;0.10;;;14.50;99.90;;;;;;5070585;28;20671;-85
2022/11/10 11:32:06;;;;;;;0.10;0.10;;;14.60;99.90;;;;;;5054192;28;20261;-85
2022/11/10 11:34:44;;;;;;;0.10;0.10;;;14.50;99.90;;;;;;5062419;28;20177;-86
2022/11/10 11:37:36;;;;;;;0.10;0.10;;;14.50;99.90;;;;;;5062610;28;20177;-85
2022/11/10 11:40:27;;;;;;;0.10;0.10;;;14.50;99.90;;;;;;5064733;28;20769;-87
2022/11/10 11:43:12;;;;;;;0.10;0.10;;;14.50;99.90;;;;;;5059054;28;20232;-85
2022/11/10 11:46:15;;;;;;;0.10;0.10;;;14.70;99.90;;;;;;5059536;28;20182;-85
2022/11/10 11:49:17;;;;;;;0.10;0.10;;;14.80;99.90;;;;;;5048817;28;20740;-85
2022/11/10 11:52:06;;;;;;;0.00;0.00;;;15.10;99.90;;;;;;5053291;28;20199;-86
2022/11/10 11:54:40;;;;;;;0.10;0.10;;;15.20;99.90;;;;;;5057607;28;20232;-85
2022/11/10 11:57:18;;;;;;;0.10;0.10;;;15.40;99.90;;;;;;5060343;28;20575;-86
2022/11/10 12:00:12;;;;;;;0.10;0.10;;;15.30;99.90;;;;;;5055054;28;20203;-85
2022/11/10 12:02:54;;;;;;;0.10;0.10;;;15.10;99.90;;;;;;5076269;28;20715;-85
2022/11/10 12:05:48;;;;;;;0.10;0.10;;;15.10;99.90;;;;;;5047142;28;20188;-85
2022/11/10 12:08:46;;;;;;;0.10;0.10;;;15.10;99.90;;;;;;5063652;28;20211;-85
2022/11/10 12:11:24;;;;;;;0.10;0.10;;;15.20;99.90;;;;;;5062788;28;20273;-86
2022/11/10 12:14:17;;;;;;;0.10;0.10;;;15.40;99.90;;;;;;5063442;28;20188;-86
2022/11/10 12:16:54;;;;;;;0.10;0.10;;;15.50;99.90;;;;;;5056935;28;20239;-86
2022/11/10 12:19:47;;;;;;;0.10;0.10;;;15.60;99.90;;;;;;5062251;28;20350;-86
2022/11/10 12:22:28;;;;;;;0.10;0.10;;;15.60;99.90;;;;;;5063403;28;20179;-85
2022/11/10 12:25:31;;;;;;;0.10;0.10;;;15.60;99.90;;;;;;5064260;28;20182;-86
2022/11/10 12:28:19;;;;;;;0.10;0.10;;;15.50;99.90;;;;;;5061098;28;20226;-86
2022/11/10 12:30:48;;;;;;;0.10;0.10;;;15.50;99.90;;;;;;5057912;28;20188;-85
2022/11/10 12:33:18;;;;;;;0.10;0.10;;;15.50;99.90;;;;;;5083555;28;20185;-86
2022/11/10 12:35:45;;;;;;;0.10;0.10;;;15.60;99.90;;;;;;5061668;28;20250;-86
2022/11/10 12:38:24;;;;;;;0.10;0.10;;;15.60;99.90;;;;;;5081886;28;20229;-86
2022/11/10 12:41:01;;;;;;;0.10;0.10;;;15.50;99.90;;;;;;5059719;28;20184;-86
2022/11/10 12:43:39;;;;;;;0.10;0.10;;;15.50;99.90;;;;;;5061010;28;20256;-86
2022/11/10 12:46:10;;;;;;;0.10;0.10;;;15.40;99.90;;;;;;5066883;28;20172;-85
2022/11/10 12:48:45;;;;;;;0.10;0.10;;;15.50;99.90;;;;;;5058248;28;20226;-86
2022/11/10 12:51:26;;;;;;;0.10;0.10;;;15.70;99.90;;;;;;5066797;28;20183;-86
2022/11/10 12:53:53;;;;;;;0.10;0.10;;;15.70;99.90;;;;;;5058731;28;20234;-86
2022/11/10 12:56:36;;;;;;;0.10;0.10;;;15.70;99.90;;;;;;5065121;28;20571;-85
2022/11/10 12:59:19;;;;;;;0.10;0.10;;;15.80;99.90;;;;;;5079073;28;20208;-85
2022/11/10 13:01:50;;;;;;;0.10;0.10;;;15.80;99.90;;;;;;5056127;28;20200;-85
2022/11/10 13:04:17;;;;;;;0.10;0.10;;;15.90;99.90;;;;;;5069620;28;20212;-86
2022/11/10 13:06:49;;;;;;;0.10;0.10;;;15.90;99.90;;;;;;5060921;28;20178;-86
2022/11/10 13:09:34;;;;;;;0.10;0.10;;;15.80;99.90;;;;;;5085905;28;20203;-85
2022/11/10 13:12:20;;;;;;;0.10;0.10;;;15.70;99.90;;;;;;5065249;28;20231;-86
2022/11/10 13:14:47;;;;;;;0.10;0.10;;;15.80;99.90;;;;;;5062740;28;20260;-86
2022/11/10 13:17:24;;;;;;;0.10;0.10;;;15.70;99.90;;;;;;5069365;28;20195;-86
2022/11/10 13:19:51;;;;;;;0.10;0.10;;;15.70;99.90;;;;;;5062700;28;20188;-86
2022/11/10 13:22:42;;;;;;;0.10;0.10;;;15.70;99.90;;;;;;5080018;28;20181;-86
2022/11/10 13:25:40;;;;;;;0.10;0.10;;;15.60;99.90;;;;;;5068499;28;20226;-86